Time;durP1;ratioP1;P1;durP2;ratioP2;P2;SDS_P1;SDS_P2;PMS_P1;PMS_P2;Temp;Humidity;BMP_temperature;BMP_pressure;BME280_temperature;BME280_humidity;BME280_pressure;Samples;Min_cycle;Max_cycle;Signal;HPM_P1;HPM_P2
2023/08/04 00:01:37;;;;;;;6.13;1.50;;;;;;;18.64;67.67;99353.28;5010053;28;20230;-70
2023/08/04 00:04:04;;;;;;;3.73;1.47;;;;;;;18.56;67.88;99343.44;5009174;28;20254;-70
2023/08/04 00:06:30;;;;;;;4.40;1.60;;;;;;;18.54;67.82;99348.31;5011494;28;20234;-70
2023/08/04 00:08:57;;;;;;;6.70;1.80;;;;;;;18.48;67.88;99355.53;5009319;28;20321;-70
2023/08/04 00:11:23;;;;;;;10.30;1.50;;;;;;;18.58;67.77;99354.19;5012651;28;20234;-69
2023/08/04 00:13:50;;;;;;;6.60;1.70;;;;;;;18.56;67.55;99359.03;5009579;28;20643;-72
2023/08/04 00:16:16;;;;;;;5.37;1.70;;;;;;;18.50;67.77;99360.78;5010335;28;20262;-72
2023/08/04 00:18:43;;;;;;;5.60;1.67;;;;;;;18.42;68.24;99366.53;5007903;28;21785;-72
2023/08/04 00:21:10;;;;;;;8.00;1.57;;;;;;;18.47;67.94;99362.06;5010171;28;20230;-72
2023/08/04 00:23:37;;;;;;;6.50;1.33;;;;;;;18.45;67.63;99374.31;5020483;28;20293;-71
2023/08/04 00:26:03;;;;;;;8.30;1.63;;;;;;;18.44;67.89;99380.88;5025004;28;20337;-72
2023/08/04 00:28:30;;;;;;;7.67;1.70;;;;;;;18.44;67.72;99370.72;5008946;28;22126;-71
2023/08/04 00:30:56;;;;;;;8.70;1.40;;;;;;;18.45;67.51;99375.16;5008090;28;20715;-72
2023/08/04 00:33:24;;;;;;;5.13;1.70;;;;;;;18.37;68.00;99373.56;5009978;28;20284;-71
2023/08/04 00:35:50;;;;;;;5.07;1.77;;;;;;;18.37;68.03;99369.97;5008931;28;20234;-71
2023/08/04 00:38:17;;;;;;;5.87;1.57;;;;;;;18.41;67.97;99375.81;5019280;28;20233;-72
2023/08/04 00:40:43;;;;;;;9.87;1.50;;;;;;;18.29;68.31;99371.09;5009830;28;20230;-71
2023/08/04 00:43:11;;;;;;;3.93;1.50;;;;;;;18.39;68.04;99372.50;5008001;28;20680;-71
2023/08/04 00:45:38;;;;;;;7.23;1.50;;;;;;;18.22;68.80;99367.59;5006672;28;20304;-70
2023/08/04 00:48:05;;;;;;;8.80;1.60;;;;;;;18.13;69.25;99368.91;5023413;28;20229;-71
2023/08/04 00:50:32;;;;;;;5.30;1.37;;;;;;;18.12;69.06;99370.81;5008262;28;20742;-74
2023/08/04 00:53:01;;;;;;;4.17;1.33;;;;;;;18.12;69.08;99368.09;5009218;28;20210;-70
2023/08/04 00:55:28;;;;;;;3.93;1.47;;;;;;;18.07;69.31;99378.03;5023823;28;20206;-70
2023/08/04 00:57:56;;;;;;;5.83;1.73;;;;;;;18.04;69.45;99379.31;5008656;28;22951;-69
2023/08/04 01:00:23;;;;;;;5.23;1.67;;;;;;;17.98;69.71;99386.50;5010169;28;20261;-70
2023/08/04 01:02:49;;;;;;;5.43;1.40;;;;;;;17.97;69.88;99382.09;5010288;28;20233;-68
2023/08/04 01:05:16;;;;;;;4.37;1.20;;;;;;;17.92;69.97;99383.78;5009651;28;20226;-67
2023/08/04 01:08:22;;;;;;;4.40;1.70;;;;;;;17.94;70.01;99393.44;5005275;28;20248;-67
2023/08/04 01:11:08;;;;;;;4.37;1.20;;;;;;;17.87;70.36;99396.25;5022195;28;20467;-69
2023/08/04 01:13:38;;;;;;;5.63;1.50;;;;;;;17.94;70.07;99393.44;5010637;28;20231;-70
2023/08/04 01:16:05;;;;;;;7.03;2.17;;;;;;;17.94;70.23;99398.91;5004333;28;20222;-69
2023/08/04 01:18:31;;;;;;;7.63;1.70;;;;;;;17.91;70.31;99391.16;5010273;28;20411;-69
2023/08/04 01:21:04;;;;;;;4.13;1.43;;;;;;;17.88;70.46;99397.06;5009006;28;20253;-68
2023/08/04 01:23:32;;;;;;;5.07;1.80;;;;;;;17.80;70.71;99397.34;5008622;28;20620;-69
2023/08/04 01:25:59;;;;;;;3.93;1.43;;;;;;;17.85;70.58;99398.38;5008535;28;20230;-69
2023/08/04 01:28:27;;;;;;;5.80;1.53;;;;;;;17.88;70.28;99389.72;5025575;28;20304;-68
2023/08/04 01:30:55;;;;;;;4.03;1.50;;;;;;;17.87;70.76;99378.97;5012704;28;20234;-70
2023/08/04 01:33:21;;;;;;;2.67;1.47;;;;;;;17.83;70.74;99373.09;5009150;28;20246;-68
2023/08/04 01:35:50;;;;;;;5.67;1.50;;;;;;;17.69;71.61;99382.47;4834002;28;20238;-68
2023/08/04 01:38:16;;;;;;;5.87;1.67;;;;;;;17.57;72.20;99385.06;4240979;28;20303;-67
2023/08/04 01:40:43;;;;;;;6.87;1.83;;;;;;;17.47;72.31;99385.53;4258452;28;20594;-71
2023/08/04 01:43:10;;;;;;;4.13;1.30;;;;;;;17.42;72.35;99388.91;4233154;28;20238;-68
2023/08/04 01:45:36;;;;;;;5.27;1.60;;;;;;;17.28;73.36;99395.50;4240167;28;21780;-68
2023/08/04 01:48:03;;;;;;;9.80;1.60;;;;;;;17.28;73.29;99400.97;4248414;28;20234;-70
2023/08/04 01:50:30;;;;;;;4.30;1.57;;;;;;;17.30;73.38;99395.28;4226629;28;20239;-68
2023/08/04 01:52:56;;;;;;;7.10;1.60;;;;;;;17.15;74.08;99390.09;4230654;28;20844;-67
2023/08/04 01:55:23;;;;;;;6.47;1.50;;;;;;;17.07;74.13;99388.47;4240250;28;21138;-68
2023/08/04 01:57:49;;;;;;;5.07;1.40;;;;;;;17.02;74.43;99389.13;4237287;28;20232;-67
2023/08/04 02:00:18;;;;;;;6.13;1.30;;;;;;;16.98;74.58;99397.97;4236558;28;21724;-68
2023/08/04 02:02:45;;;;;;;12.67;2.13;;;;;;;17.10;74.39;99393.50;4230461;28;20300;-67
2023/08/04 02:05:12;;;;;;;3.90;1.50;;;;;;;17.25;73.74;99399.53;4232359;28;20236;-69
2023/08/04 02:07:38;;;;;;;5.37;1.67;;;;;;;17.18;73.80;99390.50;4234418;28;20242;-67
2023/08/04 02:10:05;;;;;;;6.60;1.90;;;;;;;16.97;74.94;99394.38;4238422;28;20547;-67
2023/08/04 02:12:32;;;;;;;5.80;1.60;;;;;;;16.88;75.53;99395.66;4235815;28;20310;-68
2023/08/04 02:15:00;;;;;;;9.27;1.90;;;;;;;16.94;75.28;99397.53;4228566;28;20543;-69
2023/08/04 02:17:26;;;;;;;5.30;1.47;;;;;;;16.88;75.43;99407.41;4236941;28;21598;-69
2023/08/04 02:19:53;;;;;;;3.53;1.50;;;;;;;16.77;75.60;99399.84;4232687;28;20397;-68
2023/08/04 02:22:20;;;;;;;3.77;1.50;;;;;;;16.72;75.87;99408.72;4240255;28;20236;-68
2023/08/04 02:24:46;;;;;;;7.13;1.70;;;;;;;16.77;75.71;99410.78;4241938;28;20227;-69
2023/08/04 02:27:13;;;;;;;4.50;2.10;;;;;;;16.83;75.55;99423.63;4252003;28;20238;-68
2023/08/04 02:29:39;;;;;;;2.70;1.43;;;;;;;16.90;75.07;99416.25;4242604;28;20258;-70
2023/08/04 02:32:06;;;;;;;5.80;1.50;;;;;;;16.89;75.28;99417.28;4245012;28;20244;-68
2023/08/04 02:34:32;;;;;;;10.37;1.73;;;;;;;16.90;75.04;99413.50;4261721;28;20236;-69
2023/08/04 02:37:00;;;;;;;6.33;1.70;;;;;;;16.95;75.04;99412.91;4233596;28;20490;-69
2023/08/04 02:39:27;;;;;;;6.43;1.77;;;;;;;16.99;74.60;99421.50;4216020;28;20227;-67
2023/08/04 02:41:57;;;;;;;5.20;1.47;;;;;;;17.00;74.64;99436.84;4230432;28;21669;-68
2023/08/04 02:44:23;;;;;;;8.70;1.80;;;;;;;17.05;74.40;99428.84;4229995;28;21782;-69
2023/08/04 02:46:50;;;;;;;6.17;1.80;;;;;;;17.00;74.44;99434.09;4231067;28;20235;-67
2023/08/04 02:49:16;;;;;;;3.83;1.60;;;;;;;16.99;74.40;99435.19;4228298;28;22098;-67
2023/08/04 02:51:43;;;;;;;8.10;1.60;;;;;;;17.00;74.44;99442.31;4232171;28;20294;-68
2023/08/04 02:54:10;;;;;;;5.83;1.40;;;;;;;16.97;74.37;99442.75;4237089;28;20368;-68
2023/08/04 02:56:37;;;;;;;6.30;1.70;;;;;;;17.03;74.37;99448.19;4237106;28;23204;-68
2023/08/04 02:59:03;;;;;;;7.87;1.80;;;;;;;16.90;75.04;99440.00;4232025;28;21119;-68
2023/08/04 03:01:30;;;;;;;3.63;1.20;;;;;;;16.98;74.74;99439.78;4240284;28;20267;-68
2023/08/04 03:03:56;;;;;;;4.93;1.87;;;;;;;17.17;74.04;99456.38;4231928;28;20235;-68
2023/08/04 03:06:23;;;;;;;5.37;1.43;;;;;;;17.29;73.48;99451.91;4229978;28;20252;-68
2023/08/04 03:08:49;;;;;;;9.77;1.90;;;;;;;17.30;73.65;99460.94;4229187;28;20819;-67
2023/08/04 03:11:16;;;;;;;6.20;1.40;;;;;;;17.24;73.66;99468.97;4231293;28;20239;-68
2023/08/04 03:13:43;;;;;;;4.93;1.80;;;;;;;17.27;73.59;99478.63;4233006;28;20233;-67
2023/08/04 03:16:09;;;;;;;11.57;1.87;;;;;;;17.28;73.65;99477.56;4235734;28;21789;-68
2023/08/04 03:18:36;;;;;;;9.00;1.73;;;;;;;17.30;73.22;99471.88;4239872;28;21985;-68
2023/08/04 03:21:05;;;;;;;4.63;1.70;;;;;;;17.39;73.07;99467.84;4264063;28;20243;-68
2023/08/04 03:23:32;;;;;;;6.23;2.07;;;;;;;17.42;73.22;99478.38;4251228;28;20368;-67
2023/08/04 03:25:58;;;;;;;6.87;1.87;;;;;;;17.45;72.83;99486.13;4238681;28;20507;-67
2023/08/04 03:28:25;;;;;;;5.30;1.67;;;;;;;17.47;72.65;99483.22;4234103;28;20231;-69
2023/08/04 03:30:52;;;;;;;6.47;1.27;;;;;;;17.35;73.21;99472.91;4243322;28;23387;-68
2023/08/04 03:33:19;;;;;;;6.03;1.63;;;;;;;17.49;72.77;99492.00;4232309;28;23915;-69
2023/08/04 03:35:45;;;;;;;5.00;1.90;;;;;;;17.52;72.45;99494.34;4245485;28;20231;-68
2023/08/04 03:38:12;;;;;;;3.87;1.47;;;;;;;17.57;72.26;99503.59;4259664;28;20633;-69
2023/08/04 03:40:38;;;;;;;8.23;1.83;;;;;;;17.66;72.00;99493.22;4259618;28;20270;-68
2023/08/04 03:43:05;;;;;;;8.33;2.03;;;;;;;17.62;71.70;99502.94;4254703;28;20835;-69
2023/08/04 03:45:32;;;;;;;6.80;1.60;;;;;;;17.77;71.57;99497.16;4249928;28;20235;-68
2023/08/04 03:47:58;;;;;;;8.20;1.40;;;;;;;17.71;71.58;99498.88;4239261;28;22335;-68
2023/08/04 03:50:25;;;;;;;3.83;1.50;;;;;;;17.72;71.76;99499.72;4238184;28;20231;-69
2023/08/04 03:52:52;;;;;;;7.40;1.93;;;;;;;17.73;71.47;99491.28;4264812;28;20558;-69
2023/08/04 03:55:19;;;;;;;9.17;1.90;;;;;;;17.71;71.67;99492.56;4257990;28;20811;-68
2023/08/04 03:57:45;;;;;;;7.60;1.63;;;;;;;17.72;71.47;99488.78;4241485;28;20234;-69
2023/08/04 04:00:12;;;;;;;8.60;1.77;;;;;;;17.77;71.37;99488.94;4257971;28;20684;-68
2023/08/04 04:02:39;;;;;;;5.90;1.87;;;;;;;17.58;72.01;99497.06;4271742;28;20237;-69
2023/08/04 04:05:06;;;;;;;7.23;1.87;;;;;;;17.63;71.83;99498.28;4239449;28;22727;-67
2023/08/04 04:07:33;;;;;;;8.70;2.10;;;;;;;17.72;71.50;99502.47;4235844;28;20243;-68
2023/08/04 04:10:04;;;;;;;3.23;1.37;;;;;;;17.61;72.04;99497.66;4265147;28;20245;-69
2023/08/04 04:12:31;;;;;;;5.23;1.43;;;;;;;17.71;71.86;99503.50;4249642;28;20552;-68
2023/08/04 04:14:57;;;;;;;6.40;1.37;;;;;;;17.87;71.08;99505.75;4231612;28;20223;-68
2023/08/04 04:17:24;;;;;;;6.87;1.50;;;;;;;17.99;70.81;99496.88;4251669;28;21745;-68
2023/08/04 04:19:51;;;;;;;8.37;1.50;;;;;;;18.04;70.42;99502.56;4234401;28;21268;-70
2023/08/04 04:22:17;;;;;;;6.80;1.50;;;;;;;18.12;70.43;99509.66;4215537;28;22223;-69
2023/08/04 04:24:44;;;;;;;7.13;1.50;;;;;;;18.19;70.16;99510.44;4231896;28;23047;-68
2023/08/04 04:27:11;;;;;;;6.00;1.47;;;;;;;18.25;70.07;99511.47;4230466;28;21988;-68
2023/08/04 04:29:38;;;;;;;6.40;1.70;;;;;;;18.21;70.12;99513.81;4232658;28;20227;-68
2023/08/04 04:32:06;;;;;;;4.90;1.90;;;;;;;18.31;69.71;99513.31;4246812;28;20235;-68
2023/08/04 04:34:33;;;;;;;8.40;1.90;;;;;;;18.51;68.96;99511.28;4230965;28;22722;-68
2023/08/04 04:37:01;;;;;;;4.37;1.63;;;;;;;18.62;68.90;99520.69;4244557;28;21771;-67
2023/08/04 04:39:28;;;;;;;6.27;1.80;;;;;;;18.75;68.05;99516.16;4225331;28;20244;-68
2023/08/04 04:41:55;;;;;;;6.33;1.93;;;;;;;18.85;67.32;99517.34;4234351;28;20855;-69
2023/08/04 04:44:22;;;;;;;9.60;1.97;;;;;;;18.77;67.92;99527.75;4239401;28;20547;-69
2023/08/04 04:46:49;;;;;;;5.00;1.50;;;;;;;18.72;68.10;99527.56;4246083;28;20232;-68
2023/08/04 04:49:16;;;;;;;5.50;1.57;;;;;;;18.84;67.46;99534.03;4230656;28;20280;-68
2023/08/04 04:51:43;;;;;;;5.63;1.93;;;;;;;18.94;67.18;99537.13;4252757;28;20235;-69
2023/08/04 04:54:11;;;;;;;5.13;1.80;;;;;;;18.93;67.06;99548.31;4220371;28;20377;-69
2023/08/04 04:56:38;;;;;;;6.43;1.60;;;;;;;18.87;67.26;99549.19;4236702;28;20231;-68
2023/08/04 04:59:05;;;;;;;9.60;2.27;;;;;;;18.87;67.23;99543.69;4229371;28;21064;-70
2023/08/04 05:01:31;;;;;;;6.73;1.73;;;;;;;19.02;67.01;99552.47;4230687;28;20309;-69
2023/08/04 05:03:58;;;;;;;4.83;1.63;;;;;;;19.25;65.96;99561.94;4224459;28;20246;-68
2023/08/04 05:06:25;;;;;;;6.87;1.83;;;;;;;19.28;65.79;99553.25;4227428;28;20232;-68
2023/08/04 05:08:56;;;;;;;4.67;1.30;;;;;;;19.40;65.11;99565.19;4234462;28;25466;-69
2023/08/04 05:11:22;;;;;;;6.70;1.60;;;;;;;19.39;64.99;99554.41;4222265;28;20428;-69
2023/08/04 05:13:49;;;;;;;6.40;1.63;;;;;;;19.42;65.65;99553.97;4228165;28;25405;-68
2023/08/04 05:16:16;;;;;;;3.77;1.37;;;;;;;19.60;64.68;99558.63;4236600;28;20264;-68
2023/08/04 05:18:42;;;;;;;6.77;1.40;;;;;;;19.59;64.34;99559.69;4251205;28;21316;-69
2023/08/04 05:21:09;;;;;;;4.43;1.60;;;;;;;19.64;64.19;99565.31;4253848;28;20238;-72
2023/08/04 05:23:36;;;;;;;3.03;1.70;;;;;;;19.84;64.03;99567.88;4238971;28;21539;-68
2023/08/04 05:26:02;;;;;;;5.40;1.40;;;;;;;19.88;63.65;99566.34;4242504;28;20366;-73
2023/08/04 05:28:30;;;;;;;4.07;1.60;;;;;;;20.08;63.07;99576.22;4245395;28;20231;-68
2023/08/04 05:30:59;;;;;;;5.73;1.60;;;;;;;20.17;62.22;99569.34;4267511;28;20231;-71
2023/08/04 05:33:27;;;;;;;6.70;1.60;;;;;;;20.27;62.15;99574.28;4239204;28;21111;-70
2023/08/04 05:35:53;;;;;;;7.57;1.80;;;;;;;20.33;62.77;99583.53;4245766;28;23278;-71
2023/08/04 05:38:21;;;;;;;11.70;1.90;;;;;;;20.06;63.27;99573.72;4230491;28;20373;-70
2023/08/04 05:40:48;;;;;;;7.20;1.70;;;;;;;19.82;63.85;99571.88;4216731;28;20375;-70
2023/08/04 05:43:15;;;;;;;3.80;1.27;;;;;;;19.60;64.93;99569.59;4253819;28;20697;-69
2023/08/04 05:45:47;;;;;;;9.63;1.40;;;;;;;19.79;63.93;99578.69;4224045;28;20409;-70
2023/08/04 05:48:14;;;;;;;3.73;1.20;;;;;;;20.04;63.75;99575.84;4239081;28;20232;-69
2023/08/04 05:50:41;;;;;;;5.77;1.13;;;;;;;19.82;64.08;99574.63;4269684;28;20326;-71
2023/08/04 05:53:08;;;;;;;5.67;1.17;;;;;;;19.79;64.63;99590.50;4220063;28;20270;-70
2023/08/04 05:55:36;;;;;;;4.80;1.20;;;;;;;19.70;64.66;99583.66;4231534;28;20235;-65
2023/08/04 05:58:03;;;;;;;8.07;1.20;;;;;;;19.72;65.18;99586.16;4233280;28;20237;-67
2023/08/04 06:00:31;;;;;;;4.13;1.40;;;;;;;20.51;62.94;99585.38;4254693;28;21011;-70
2023/08/04 06:02:57;;;;;;;5.67;1.10;;;;;;;20.84;61.83;99575.81;4263894;28;20474;-70
2023/08/04 06:05:24;;;;;;;4.70;1.40;;;;;;;22.15;58.37;99577.41;4249566;28;20612;-68
2023/08/04 06:07:52;;;;;;;7.50;1.40;;;;;;;21.57;59.14;99587.47;4270158;28;20246;-67
2023/08/04 06:10:19;;;;;;;3.00;1.00;;;;;;;22.11;58.01;99576.22;4251677;28;20297;-72
2023/08/04 06:12:47;;;;;;;4.37;1.17;;;;;;;23.72;52.78;99574.22;4236722;28;20236;-68
2023/08/04 06:15:14;;;;;;;4.43;1.10;;;;;;;25.35;47.52;99574.50;4243594;28;20418;-68
2023/08/04 06:17:41;;;;;;;5.30;1.40;;;;;;;25.39;47.85;99582.06;4253958;28;20301;-71
2023/08/04 06:20:09;;;;;;;4.50;1.20;;;;;;;24.57;49.74;99578.56;4252612;28;20248;-69
2023/08/04 06:22:36;;;;;;;2.67;1.03;;;;;;;23.13;53.60;99586.59;4264162;28;20442;-66
2023/08/04 06:25:03;;;;;;;6.73;1.20;;;;;;;23.00;54.34;99597.97;4318139;28;26965;-68
2023/08/04 06:27:30;;;;;;;5.30;1.17;;;;;;;22.19;56.01;99597.06;4236713;28;20350;-72
2023/08/04 06:29:58;;;;;;;3.63;0.93;;;;;;;21.75;56.91;99588.41;4239029;28;20235;-69
2023/08/04 06:32:26;;;;;;;4.10;1.10;;;;;;;21.46;58.29;99585.53;4277687;28;21531;-72
2023/08/04 06:34:53;;;;;;;2.30;0.87;;;;;;;21.36;58.29;99595.25;4265266;28;20238;-69
2023/08/04 06:37:20;;;;;;;3.83;0.97;;;;;;;21.48;58.34;99594.38;4264598;28;20241;-72
2023/08/04 06:39:49;;;;;;;9.30;1.03;;;;;;;21.65;58.27;99597.28;4238874;28;20235;-71
2023/08/04 06:42:19;;;;;;;5.87;0.90;;;;;;;21.71;57.53;99610.09;4248664;28;21581;-71
2023/08/04 06:44:46;;;;;;;17.57;1.70;;;;;;;22.82;55.10;99599.06;4233776;28;22807;-70
2023/08/04 06:47:13;;;;;;;6.37;1.23;;;;;;;23.03;54.88;99600.25;4248252;28;25656;-70
2023/08/04 06:49:41;;;;;;;10.17;1.10;;;;;;;23.56;52.44;99609.09;4305762;28;20235;-70
2023/08/04 06:52:08;;;;;;;5.53;0.97;;;;;;;24.28;49.95;99617.53;4275794;28;20236;-71
2023/08/04 06:54:36;;;;;;;2.73;0.90;;;;;;;24.87;48.27;99619.56;4243322;28;20239;-68
2023/08/04 06:57:03;;;;;;;6.70;1.30;;;;;;;24.90;48.40;99612.66;4235461;28;20302;-68
2023/08/04 06:59:30;;;;;;;4.77;1.47;;;;;;;24.66;48.65;99611.06;4277316;28;25313;-69
2023/08/04 07:01:56;;;;;;;3.27;1.00;;;;;;;24.28;49.66;99607.31;4270295;28;20285;-72
2023/08/04 07:04:23;;;;;;;2.70;0.80;;;;;;;24.41;49.30;99606.06;4270261;28;20590;-51
2023/08/04 07:06:50;;;;;;;10.80;1.57;;;;;;;24.88;48.36;99612.94;4379954;28;23036;-49
2023/08/04 07:09:17;;;;;;;3.57;0.90;;;;;;;25.19;47.49;99617.88;4265182;28;21244;-47
2023/08/04 07:11:44;;;;;;;4.60;1.00;;;;;;;25.28;48.32;99625.44;4252381;28;21015;-47
2023/08/04 07:14:11;;;;;;;3.97;1.10;;;;;;;25.36;47.03;99621.34;4380494;28;20377;-67
2023/08/04 07:16:38;;;;;;;5.00;1.10;;;;;;;24.44;49.98;99621.28;4275270;28;20235;-66
2023/08/04 07:19:05;;;;;;;4.00;1.10;;;;;;;23.71;51.21;99625.06;4297410;28;20252;-65
2023/08/04 07:21:32;;;;;;;4.33;1.17;;;;;;;23.66;51.73;99633.28;4280732;28;20310;-66
2023/08/04 07:23:58;;;;;;;5.83;1.30;;;;;;;23.82;51.33;99624.13;4283211;28;20236;-66
2023/08/04 07:26:26;;;;;;;3.23;0.90;;;;;;;23.42;52.24;99630.69;4247762;28;21204;-64
2023/08/04 07:28:53;;;;;;;3.43;1.00;;;;;;;22.47;54.67;99634.00;4257742;28;20238;-69
2023/08/04 07:31:20;;;;;;;3.03;1.20;;;;;;;22.36;55.03;99638.47;4226082;28;20226;-67
2023/08/04 07:33:47;;;;;;;5.33;1.10;;;;;;;22.52;55.42;99647.88;4234369;28;20293;-67
2023/08/04 07:36:14;;;;;;;6.43;1.53;;;;;;;22.73;54.76;99651.88;4248893;28;21314;-67
2023/08/04 07:38:41;;;;;;;3.43;1.20;;;;;;;22.29;56.58;99651.56;4274679;28;20694;-66
2023/08/04 07:41:08;;;;;;;6.93;1.37;;;;;;;22.47;56.21;99653.31;4227646;28;20339;-66
2023/08/04 07:43:38;;;;;;;4.50;1.27;;;;;;;22.76;54.77;99658.81;4246252;28;20309;-65
2023/08/04 07:46:04;;;;;;;10.40;1.57;;;;;;;22.65;54.70;99662.50;4248192;28;20306;-66
2023/08/04 07:48:31;;;;;;;4.43;1.37;;;;;;;22.50;54.68;99672.16;4250461;28;20397;-67
2023/08/04 07:51:00;;;;;;;2.83;1.13;;;;;;;22.59;55.12;99665.13;4227235;28;20730;-67
2023/08/04 07:53:27;;;;;;;9.70;1.57;;;;;;;22.60;55.11;99674.25;4240011;28;20242;-68
2023/08/04 07:55:55;;;;;;;4.93;1.30;;;;;;;22.42;55.28;99680.81;4252447;28;20633;-66
2023/08/04 07:58:22;;;;;;;5.97;1.23;;;;;;;22.15;56.45;99670.28;4219244;28;20691;-67
2023/08/04 08:00:49;;;;;;;8.13;1.30;;;;;;;22.40;55.88;99680.19;4271760;28;21742;-70
2023/08/04 08:03:16;;;;;;;5.53;1.23;;;;;;;22.57;55.21;99675.59;4239944;28;20234;-66
2023/08/04 08:05:43;;;;;;;6.60;1.00;;;;;;;22.51;54.72;99681.25;4246948;28;20400;-66
2023/08/04 08:08:10;;;;;;;3.07;0.90;;;;;;;22.61;54.70;99676.75;4234930;28;23519;-68
2023/08/04 08:10:36;;;;;;;8.43;1.00;;;;;;;22.79;53.98;99672.13;4235858;28;20341;-65
2023/08/04 08:13:03;;;;;;;4.53;1.13;;;;;;;23.05;53.39;99669.81;4244978;28;22020;-66
2023/08/04 08:15:32;;;;;;;11.10;1.37;;;;;;;23.88;51.50;99678.38;4262514;28;20236;-67
2023/08/04 08:18:00;;;;;;;6.47;0.83;;;;;;;24.40;49.88;99681.84;4234647;28;20235;-66
2023/08/04 08:20:27;;;;;;;4.67;1.00;;;;;;;24.56;48.95;99682.88;4242903;28;20319;-65
2023/08/04 08:22:54;;;;;;;6.93;1.00;;;;;;;24.30;50.08;99692.78;4249326;28;20662;-68
2023/08/04 08:25:21;;;;;;;2.93;1.00;;;;;;;24.82;47.66;99697.00;4243928;28;20239;-68
2023/08/04 08:27:48;;;;;;;5.03;0.97;;;;;;;24.75;48.35;99700.00;4230596;28;20864;-67
2023/08/04 08:30:15;;;;;;;3.93;0.97;;;;;;;24.48;48.13;99699.94;4216512;28;20295;-65
2023/08/04 08:32:41;;;;;;;6.13;1.17;;;;;;;25.09;47.48;99704.50;4269392;28;20668;-70
2023/08/04 08:35:08;;;;;;;10.70;1.10;;;;;;;25.14;47.04;99712.84;4239409;28;20237;-67
2023/08/04 08:37:35;;;;;;;3.67;0.83;;;;;;;25.07;46.93;99712.22;4239635;28;20231;-66
2023/08/04 08:40:03;;;;;;;5.70;1.00;;;;;;;25.28;46.41;99713.25;4247351;28;20514;-65
2023/08/04 08:42:32;;;;;;;2.00;0.70;;;;;;;25.44;45.83;99725.34;4265257;28;20229;-68
2023/08/04 08:44:59;;;;;;;2.60;0.80;;;;;;;25.48;45.81;99712.63;4255135;28;20240;-69
2023/08/04 08:47:34;;;;;;;4.53;1.00;;;;;;;25.15;45.51;99722.81;4264595;28;20246;-73
2023/08/04 08:50:05;;;;;;;2.37;1.00;;;;;;;25.70;44.71;99712.50;4285914;28;20231;-67
2023/08/04 08:52:38;;;;;;;3.13;0.60;;;;;;;25.51;44.63;99712.09;4278721;28;20305;-68
2023/08/04 08:55:05;;;;;;;1.30;0.67;;;;;;;25.23;46.60;99719.59;4266873;28;23130;-68
2023/08/04 08:57:32;;;;;;;2.33;0.73;;;;;;;26.17;44.50;99710.06;4239907;28;22024;-66
2023/08/04 09:00:02;;;;;;;2.23;0.80;;;;;;;26.00;44.00;99715.78;4254744;28;20417;-69
2023/08/04 09:02:29;;;;;;;3.20;0.80;;;;;;;25.93;44.22;99707.69;4240150;28;20310;-68
2023/08/04 09:04:55;;;;;;;5.13;0.77;;;;;;;25.05;46.63;99717.19;4238479;28;20227;-66
2023/08/04 09:07:23;;;;;;;2.93;0.80;;;;;;;25.54;44.71;99710.72;4249329;28;21274;-67
2023/08/04 09:09:50;;;;;;;6.73;1.10;;;;;;;25.70;44.70;99717.25;4279632;28;20239;-67
2023/08/04 09:12:16;;;;;;;4.00;0.93;;;;;;;25.43;44.31;99715.34;4265419;28;20882;-71
2023/08/04 09:14:55;;;;;;;5.83;1.00;;;;;;;25.54;44.15;99719.88;4267132;28;20234;-67
2023/08/04 09:17:35;;;;;;;10.70;1.10;;;;;;;25.14;44.55;99715.63;4230275;28;20237;-66
2023/08/04 09:20:06;;;;;;;7.63;1.00;;;;;;;25.07;45.15;99723.28;4221487;28;20338;-66
2023/08/04 09:22:38;;;;;;;3.87;0.87;;;;;;;25.02;45.88;99737.09;4244189;28;20228;-68
2023/08/04 09:25:05;;;;;;;9.13;1.10;;;;;;;25.26;44.88;99727.38;4243045;28;20281;-67
2023/08/04 09:27:37;;;;;;;6.53;1.10;;;;;;;25.26;44.45;99732.06;4243743;28;20387;-67
2023/08/04 09:30:09;;;;;;;2.43;0.63;;;;;;;25.09;44.92;99727.47;4250727;28;22395;-66
2023/08/04 09:32:44;;;;;;;6.10;1.00;;;;;;;25.26;44.69;99732.94;4232373;28;21897;-67
2023/08/04 09:35:11;;;;;;;6.07;1.20;;;;;;;24.93;46.01;99740.34;4218569;28;21099;-66
2023/08/04 09:37:38;;;;;;;5.97;0.83;;;;;;;25.17;45.69;99726.19;4235044;28;20227;-68
2023/08/04 09:40:14;;;;;;;6.60;1.00;;;;;;;25.41;44.88;99745.28;4207757;28;21653;-65
2023/08/04 09:42:44;;;;;;;13.30;2.17;;;;;;;25.37;45.04;99736.63;4247341;28;20225;-66
2023/08/04 09:45:15;;;;;;;8.23;1.33;;;;;;;25.10;45.74;99731.91;4239894;28;20239;-70
2023/08/04 09:47:48;;;;;;;4.57;0.90;;;;;;;24.98;44.93;99734.00;4247018;28;20409;-65
2023/08/04 09:50:17;;;;;;;3.87;0.90;;;;;;;25.06;45.08;99736.31;4230363;28;20239;-69
2023/08/04 09:52:44;;;;;;;2.10;0.77;;;;;;;24.89;45.88;99743.88;4232104;28;21650;-68
2023/08/04 09:55:10;;;;;;;6.03;0.87;;;;;;;24.79;46.46;99739.88;4232971;28;20235;-69
2023/08/04 09:57:38;;;;;;;3.83;1.20;;;;;;;25.17;46.26;99745.56;4239626;28;20235;-67
2023/08/04 10:00:08;;;;;;;6.30;1.20;;;;;;;25.06;45.91;99752.94;4240662;28;20313;-68
2023/08/04 10:02:35;;;;;;;3.67;0.77;;;;;;;24.88;45.87;99743.06;4229752;28;20235;-68
2023/08/04 10:05:03;;;;;;;4.00;0.70;;;;;;;24.43;46.52;99733.06;4236053;28;20303;-71
2023/08/04 10:07:31;;;;;;;3.07;1.03;;;;;;;24.79;45.65;99739.06;4246853;28;20611;-65
2023/08/04 10:10:00;;;;;;;7.37;1.73;;;;;;;25.17;45.77;99734.50;4208971;28;20231;-69
2023/08/04 10:12:29;;;;;;;10.10;1.80;;;;;;;25.11;45.92;99735.53;4401709;28;21839;-68
2023/08/04 10:14:56;;;;;;;13.93;1.63;;;;;;;25.35;45.06;99726.88;4321579;28;20236;-67
2023/08/04 10:17:23;;;;;;;14.40;1.70;;;;;;;25.58;44.65;99742.38;4257444;28;23187;-65
2023/08/04 10:20:00;;;;;;;6.20;0.90;;;;;;;25.43;44.64;99743.06;4249692;28;20236;-67
2023/08/04 10:22:27;;;;;;;7.97;1.13;;;;;;;25.61;44.65;99748.22;4243994;28;22669;-66
2023/08/04 10:24:54;;;;;;;8.33;1.50;;;;;;;25.47;44.81;99745.03;4262418;28;20317;-69
2023/08/04 10:27:21;;;;;;;4.13;0.93;;;;;;;25.15;46.08;99736.69;4242702;28;21181;-66
2023/08/04 10:30:13;;;;;;;6.53;0.70;;;;;;;25.28;43.95;99740.97;4261111;28;20241;-65
2023/08/04 10:32:40;;;;;;;12.43;1.20;;;;;;;25.15;44.31;99728.38;4282540;28;20313;-67
2023/08/04 10:35:27;;;;;;;6.30;1.23;;;;;;;25.35;44.47;99727.72;4351007;28;20277;-69
2023/08/04 10:37:59;;;;;;;3.63;1.00;;;;;;;25.33;44.19;99738.22;4242727;28;20300;-65
2023/08/04 10:40:30;;;;;;;3.40;0.90;;;;;;;25.59;44.52;99735.72;4239425;28;22473;-68
2023/08/04 10:43:07;;;;;;;5.90;1.10;;;;;;;25.88;43.93;99738.97;4238771;28;20242;-68
2023/08/04 10:46:05;;;;;;;3.47;1.00;;;;;;;25.71;44.38;99741.91;4269288;28;20238;-69
2023/08/04 10:48:36;;;;;;;2.27;0.70;;;;;;;25.57;43.63;99740.69;4221687;28;21144;-67
2023/08/04 10:51:03;;;;;;;5.20;1.00;;;;;;;24.87;45.92;99744.16;4262733;28;21898;-67
2023/08/04 10:53:30;;;;;;;2.57;1.03;;;;;;;24.88;45.24;99753.28;4241701;28;20720;-65
2023/08/04 10:55:58;;;;;;;2.83;0.90;;;;;;;24.79;45.31;99750.13;4224256;28;20409;-67
2023/08/04 10:58:25;;;;;;;5.27;0.80;;;;;;;24.64;46.07;99753.50;4241160;28;20234;-67
2023/08/04 11:00:53;;;;;;;2.20;0.90;;;;;;;24.62;45.93;99748.25;4256390;28;21720;-63
2023/08/04 11:03:28;;;;;;;4.97;1.00;;;;;;;24.96;45.16;99755.59;4238320;28;20242;-65
2023/08/04 11:05:55;;;;;;;1.53;0.77;;;;;;;25.10;44.82;99756.03;4234610;28;20261;-65
2023/08/04 11:08:23;;;;;;;3.37;1.33;;;;;;;25.03;45.00;99761.75;4270618;28;20238;-65
2023/08/04 11:10:55;;;;;;;5.73;0.70;;;;;;;25.25;44.68;99749.78;4225914;28;22238;-65
2023/08/04 11:13:23;;;;;;;4.77;1.50;;;;;;;25.04;44.65;99768.16;4232993;28;20324;-66
2023/08/04 11:15:50;;;;;;;4.50;1.07;;;;;;;24.76;45.68;99756.19;4243782;28;21809;-66
2023/08/04 11:18:25;;;;;;;6.37;0.93;;;;;;;24.33;47.48;99753.97;4255941;28;20484;-67
2023/08/04 11:20:53;;;;;;;5.20;1.00;;;;;;;24.20;48.54;99754.34;4237797;28;20235;-66
2023/08/04 11:23:25;;;;;;;2.90;1.20;;;;;;;24.95;45.87;99760.31;4236076;28;20241;-66
2023/08/04 11:25:52;;;;;;;5.17;1.20;;;;;;;25.23;45.26;99757.50;4237681;28;23352;-67
2023/08/04 11:28:19;;;;;;;2.73;1.30;;;;;;;25.28;45.18;99754.81;4229788;28;20716;-70
2023/08/04 11:30:50;;;;;;;3.37;0.90;;;;;;;25.12;45.70;99754.66;4241773;28;20374;-75
2023/08/04 11:33:17;;;;;;;4.67;0.80;;;;;;;24.89;46.26;99753.00;4239057;28;20227;-67
2023/08/04 11:35:44;;;;;;;3.75;0.80;;;;;;;25.45;46.51;99757.50;4256809;28;20422;-64
2023/08/04 11:38:11;;;;;;;4.80;1.30;;;;;;;25.66;44.13;99761.28;4233262;28;20231;-64